Time;durP1;ratioP1;P1;durP2;ratioP2;P2;SDS_P1;SDS_P2;PMS_P1;PMS_P2;Temp;Humidity;BMP_temperature;BMP_pressure;BME280_temperature;BME280_humidity;BME280_pressure;Samples;Min_cycle;Max_cycle;Signal;HPM_P1;HPM_P2
2021/10/20 00:00:14;;;;;;;2.55;2.35;;;17.20;99.90;;;;;;5052673;28;20188;-79
2021/10/20 00:02:41;;;;;;;3.05;2.25;;;17.30;99.90;;;;;;5053327;28;20171;-79
2021/10/20 00:05:07;;;;;;;2.67;2.17;;;17.30;99.90;;;;;;5053368;28;20174;-79
2021/10/20 00:07:32;;;;;;;2.35;2.03;;;17.30;99.90;;;;;;5053165;28;20187;-78
2021/10/20 00:09:58;;;;;;;2.55;2.28;;;17.20;99.90;;;;;;5053033;28;20641;-77
2021/10/20 00:12:24;;;;;;;1.85;1.75;;;17.20;99.90;;;;;;5053432;28;20163;-77
2021/10/20 00:14:50;;;;;;;4.57;2.50;;;17.20;99.90;;;;;;5053720;28;20302;-78
2021/10/20 00:17:16;;;;;;;3.47;2.40;;;17.20;99.90;;;;;;5053253;28;20198;-77
2021/10/20 00:19:42;;;;;;;2.47;2.28;;;17.10;99.90;;;;;;5053220;28;20203;-77
2021/10/20 00:22:07;;;;;;;2.83;2.63;;;17.10;99.90;;;;;;5052689;28;20172;-78
2021/10/20 00:24:33;;;;;;;2.45;2.25;;;17.10;99.90;;;;;;5052813;28;21038;-79
2021/10/20 00:26:58;;;;;;;3.50;1.80;;;17.00;99.90;;;;;;5052847;28;20180;-78
2021/10/20 00:29:24;;;;;;;2.70;2.30;;;17.00;99.90;;;;;;5051548;28;20591;-78
2021/10/20 00:31:50;;;;;;;3.03;2.63;;;16.90;99.90;;;;;;5052314;28;20233;-77
2021/10/20 00:34:15;;;;;;;2.38;2.17;;;17.00;99.90;;;;;;5052283;28;20202;-77
2021/10/20 00:36:41;;;;;;;2.50;2.15;;;17.10;99.90;;;;;;5051802;28;20568;-79
2021/10/20 00:39:07;;;;;;;4.90;2.13;;;17.00;99.90;;;;;;5051712;28;20187;-79
2021/10/20 00:41:32;;;;;;;5.95;2.15;;;17.00;99.90;;;;;;5052494;28;20174;-78
2021/10/20 00:43:58;;;;;;;5.78;2.83;;;17.00;99.90;;;;;;5052799;28;20254;-79
2021/10/20 00:46:30;;;;;;;2.67;2.47;;;16.90;99.90;;;;;;5053045;28;20169;-79
2021/10/20 00:48:57;;;;;;;2.53;2.33;;;16.80;99.90;;;;;;5052199;28;20583;-77
2021/10/20 00:51:25;;;;;;;6.57;2.53;;;16.80;99.90;;;;;;5052575;28;20199;-80
2021/10/20 00:54:01;;;;;;;8.88;2.58;;;16.90;99.90;;;;;;5052524;28;20689;-77
2021/10/20 00:56:28;;;;;;;3.30;1.98;;;16.80;99.90;;;;;;5053090;28;20531;-79
2021/10/20 00:58:54;;;;;;;2.85;2.47;;;17.00;99.90;;;;;;5052615;28;20210;-78
2021/10/20 01:01:20;;;;;;;3.58;2.92;;;17.00;99.90;;;;;;5052529;28;20215;-80
2021/10/20 01:03:46;;;;;;;2.40;2.20;;;16.80;99.90;;;;;;5052363;28;20254;-77
2021/10/20 01:06:13;;;;;;;3.20;2.70;;;16.80;99.90;;;;;;5052445;28;20199;-79
2021/10/20 01:08:39;;;;;;;2.78;2.17;;;16.80;99.90;;;;;;5052633;28;20278;-79
2021/10/20 01:11:06;;;;;;;2.83;2.60;;;16.80;99.90;;;;;;5052039;28;20551;-78
2021/10/20 01:13:32;;;;;;;4.65;2.45;;;16.80;99.90;;;;;;5052534;28;20662;-78
2021/10/20 01:15:59;;;;;;;3.03;2.80;;;16.90;99.90;;;;;;5052555;28;20218;-79
2021/10/20 01:18:24;;;;;;;3.00;2.70;;;16.90;99.90;;;;;;5052333;28;20245;-78
2021/10/20 01:20:51;;;;;;;3.70;2.75;;;17.00;99.90;;;;;;5052472;28;20167;-79
2021/10/20 01:23:21;;;;;;;7.20;2.50;;;16.90;99.90;;;;;;5052454;28;20623;-79
2021/10/20 01:25:47;;;;;;;3.10;2.83;;;16.90;99.90;;;;;;5052408;28;20505;-78
2021/10/20 01:28:14;;;;;;;2.53;2.33;;;16.90;99.90;;;;;;5052514;28;20202;-80
2021/10/20 01:30:40;;;;;;;5.80;2.30;;;17.00;99.90;;;;;;5052375;28;20495;-78
2021/10/20 01:33:05;;;;;;;7.57;3.10;;;16.90;99.90;;;;;;5052269;28;20170;-78
2021/10/20 01:35:31;;;;;;;7.10;2.85;;;16.90;99.90;;;;;;5052172;28;20206;-79
2021/10/20 01:37:58;;;;;;;3.47;2.80;;;17.10;99.90;;;;;;5052340;28;20191;-79
2021/10/20 01:40:24;;;;;;;2.83;2.42;;;17.20;99.90;;;;;;5052420;28;20170;-78
2021/10/20 01:42:50;;;;;;;2.70;2.45;;;17.00;99.90;;;;;;5052243;28;20636;-79
2021/10/20 01:45:15;;;;;;;5.55;2.60;;;17.10;99.90;;;;;;5052130;28;20624;-77
2021/10/20 01:47:41;;;;;;;6.22;2.28;;;17.00;99.90;;;;;;5052255;28;20582;-79
2021/10/20 01:50:09;;;;;;;2.88;2.53;;;17.00;99.90;;;;;;5052141;28;20171;-78
2021/10/20 01:52:35;;;;;;;3.75;2.67;;;17.00;99.90;;;;;;5052273;28;20172;-79
2021/10/20 01:55:03;;;;;;;2.83;2.50;;;17.00;99.90;;;;;;5051995;28;20238;-78
2021/10/20 01:57:28;;;;;;;4.40;3.05;;;16.90;99.90;;;;;;5051962;28;20186;-79
2021/10/20 01:59:54;;;;;;;5.07;2.67;;;17.00;99.90;;;;;;5052039;28;20171;-77
2021/10/20 02:02:20;;;;;;;2.80;2.50;;;17.00;99.90;;;;;;5050764;28;20174;-78
2021/10/20 02:04:48;;;;;;;6.60;2.50;;;17.00;99.90;;;;;;5051724;28;20174;-80
2021/10/20 02:07:14;;;;;;;2.60;2.40;;;17.00;99.90;;;;;;5051728;28;20163;-77
2021/10/20 02:09:39;;;;;;;3.80;2.45;;;17.00;99.90;;;;;;5050462;28;20635;-79
2021/10/20 02:12:06;;;;;;;6.80;2.53;;;17.00;99.90;;;;;;5052414;28;20254;-78
2021/10/20 02:14:32;;;;;;;2.45;2.25;;;17.10;99.90;;;;;;5051715;28;20206;-77
2021/10/20 02:16:57;;;;;;;4.75;2.50;;;17.00;99.90;;;;;;5051813;28;20167;-77
2021/10/20 02:19:23;;;;;;;6.47;2.42;;;17.00;99.90;;;;;;5051501;28;20555;-78
2021/10/20 02:21:49;;;;;;;3.88;2.63;;;17.00;99.90;;;;;;5052555;28;20163;-78
2021/10/20 02:24:14;;;;;;;5.45;2.75;;;17.10;99.90;;;;;;5055439;28;20199;-78
2021/10/20 02:26:40;;;;;;;2.58;2.38;;;17.10;99.90;;;;;;5055395;28;20220;-79
2021/10/20 02:29:05;;;;;;;2.67;2.30;;;17.20;99.90;;;;;;5053726;28;20192;-79
2021/10/20 02:31:31;;;;;;;10.27;2.45;;;17.10;99.90;;;;;;5055653;28;20171;-78
2021/10/20 02:33:56;;;;;;;3.92;2.33;;;17.00;99.90;;;;;;5055088;28;20178;-78
2021/10/20 02:36:22;;;;;;;4.75;3.00;;;17.10;99.90;;;;;;5055448;28;20171;-78
2021/10/20 02:38:48;;;;;;;12.23;2.70;;;17.10;99.90;;;;;;5055181;28;20261;-78
2021/10/20 02:41:14;;;;;;;3.53;2.55;;;17.10;99.90;;;;;;5055335;28;20167;-77
2021/10/20 02:43:39;;;;;;;4.70;2.55;;;17.10;99.90;;;;;;5054598;28;20170;-76
2021/10/20 02:46:05;;;;;;;2.35;2.15;;;17.10;99.90;;;;;;5055088;28;20625;-78
2021/10/20 02:48:31;;;;;;;5.70;2.85;;;17.10;99.90;;;;;;5055173;28;20191;-78
2021/10/20 02:50:57;;;;;;;2.47;2.28;;;17.10;99.90;;;;;;5054934;28;20186;-76
2021/10/20 02:53:23;;;;;;;5.43;2.58;;;17.10;99.90;;;;;;5054984;28;20174;-78
2021/10/20 02:55:48;;;;;;;3.42;2.90;;;17.10;99.90;;;;;;5054900;28;20248;-78
2021/10/20 02:58:14;;;;;;;3.25;2.78;;;17.10;99.90;;;;;;5054381;28;20262;-80
2021/10/20 03:00:39;;;;;;;3.55;3.08;;;17.20;99.90;;;;;;5054597;28;20693;-78
2021/10/20 03:03:05;;;;;;;3.03;2.70;;;17.20;99.90;;;;;;5054733;28;20567;-78
2021/10/20 03:05:30;;;;;;;3.95;2.60;;;17.10;99.90;;;;;;5054800;28;20179;-79
2021/10/20 03:07:56;;;;;;;2.97;2.55;;;17.10;99.90;;;;;;5053673;28;20222;-78
2021/10/20 03:10:22;;;;;;;3.45;3.15;;;17.10;99.90;;;;;;5054907;28;20177;-78
2021/10/20 03:12:48;;;;;;;9.27;2.65;;;17.10;99.90;;;;;;5054124;28;20238;-77
2021/10/20 03:15:14;;;;;;;3.85;2.67;;;17.00;99.90;;;;;;5054238;28;20225;-78
2021/10/20 03:17:39;;;;;;;4.93;3.15;;;17.00;99.90;;;;;;5053954;28;20265;-78
2021/10/20 03:20:10;;;;;;;3.97;2.70;;;17.10;99.90;;;;;;5054292;28;20250;-78
2021/10/20 03:22:44;;;;;;;3.55;3.13;;;17.10;99.90;;;;;;5054158;28;20569;-77
2021/10/20 03:25:11;;;;;;;8.68;2.92;;;17.10;99.90;;;;;;5054038;28;20194;-79
2021/10/20 03:27:41;;;;;;;3.67;2.33;;;17.20;99.90;;;;;;5054284;28;20193;-78
2021/10/20 03:30:07;;;;;;;6.07;2.63;;;17.10;99.90;;;;;;5054100;28;20182;-78
2021/10/20 03:32:32;;;;;;;3.40;3.08;;;17.10;99.90;;;;;;5053828;28;20584;-79
2021/10/20 03:34:58;;;;;;;3.70;3.33;;;17.00;99.90;;;;;;5053622;28;20255;-77
2021/10/20 03:37:24;;;;;;;7.13;3.17;;;17.00;99.90;;;;;;5054200;28;20226;-78
2021/10/20 03:39:49;;;;;;;12.82;3.53;;;17.10;99.90;;;;;;5052645;28;20225;-78
2021/10/20 03:42:15;;;;;;;3.72;3.33;;;17.10;99.90;;;;;;5054300;28;20179;-78
2021/10/20 03:44:40;;;;;;;3.53;2.80;;;17.20;99.90;;;;;;5053887;28;20178;-78
2021/10/20 03:47:06;;;;;;;3.75;3.28;;;17.00;99.90;;;;;;5053763;28;20635;-76
2021/10/20 03:49:31;;;;;;;3.25;2.95;;;16.90;99.90;;;;;;5053819;28;20175;-78
2021/10/20 03:51:57;;;;;;;2.92;2.72;;;16.90;99.90;;;;;;5053605;28;20174;-78
2021/10/20 03:54:23;;;;;;;3.42;3.13;;;16.80;99.90;;;;;;5053118;28;20675;-78
2021/10/20 03:56:48;;;;;;;2.88;2.65;;;16.90;99.90;;;;;;5053697;28;20289;-82
2021/10/20 03:59:14;;;;;;;5.90;3.28;;;16.90;99.90;;;;;;5053421;28;20273;-78
2021/10/20 04:01:39;;;;;;;3.25;2.95;;;16.90;99.90;;;;;;5053661;28;20167;-78
2021/10/20 04:04:05;;;;;;;4.38;3.47;;;16.90;99.90;;;;;;5053583;28;20217;-79
2021/10/20 04:06:31;;;;;;;5.93;3.10;;;16.80;99.90;;;;;;5053588;28;20179;-79
2021/10/20 04:08:56;;;;;;;7.13;3.63;;;16.70;99.90;;;;;;5053160;28;20286;-77
2021/10/20 04:11:22;;;;;;;8.50;3.30;;;16.70;99.90;;;;;;5053269;28;20213;-78
2021/10/20 04:13:47;;;;;;;3.78;3.45;;;16.70;99.90;;;;;;5053178;28;20282;-79
2021/10/20 04:16:13;;;;;;;8.38;3.30;;;16.70;99.90;;;;;;5052603;28;20685;-80
2021/10/20 04:18:39;;;;;;;8.27;3.85;;;16.60;99.90;;;;;;5052719;28;20244;-79
2021/10/20 04:21:04;;;;;;;5.63;3.70;;;16.70;99.90;;;;;;5051666;28;20167;-77
2021/10/20 04:23:30;;;;;;;6.25;3.88;;;16.80;99.90;;;;;;5052712;28;20623;-77
2021/10/20 04:25:56;;;;;;;9.35;4.00;;;16.80;99.90;;;;;;5052789;28;20178;-78
2021/10/20 04:28:21;;;;;;;9.57;4.05;;;16.90;99.90;;;;;;5052732;28;20229;-79
2021/10/20 04:30:47;;;;;;;18.20;3.97;;;16.90;99.90;;;;;;5063246;28;20175;-78
2021/10/20 04:33:12;;;;;;;3.53;2.70;;;16.90;99.90;;;;;;5074181;28;20183;-78
2021/10/20 04:35:38;;;;;;;3.58;3.28;;;17.00;99.90;;;;;;5072940;28;20238;-79
2021/10/20 04:38:04;;;;;;;9.13;3.58;;;16.90;99.90;;;;;;5073324;28;20710;-78
2021/10/20 04:40:29;;;;;;;12.38;4.68;;;17.00;99.90;;;;;;5071818;28;20194;-79
2021/10/20 04:42:55;;;;;;;6.15;3.88;;;16.90;99.90;;;;;;5059229;28;20601;-79
2021/10/20 04:45:21;;;;;;;6.57;3.28;;;17.00;99.90;;;;;;5055525;28;20182;-79
2021/10/20 04:47:46;;;;;;;3.55;3.25;;;17.00;99.90;;;;;;5055953;28;20274;-79
2021/10/20 04:50:12;;;;;;;3.58;3.03;;;17.00;99.90;;;;;;5054005;28;20167;-79
2021/10/20 04:52:38;;;;;;;3.53;3.22;;;17.00;99.90;;;;;;5052457;28;20205;-78
2021/10/20 04:55:05;;;;;;;7.25;3.05;;;17.00;99.90;;;;;;5052771;28;20210;-79
2021/10/20 04:57:31;;;;;;;4.60;3.45;;;17.00;99.90;;;;;;5052045;28;20186;-78
2021/10/20 04:59:56;;;;;;;3.83;3.03;;;17.00;99.90;;;;;;5052403;28;20168;-78
2021/10/20 05:02:22;;;;;;;10.13;3.63;;;16.90;99.90;;;;;;5052173;28;20156;-78
2021/10/20 05:04:48;;;;;;;3.08;2.88;;;16.90;99.90;;;;;;5052440;28;20213;-78
2021/10/20 05:07:14;;;;;;;5.75;3.17;;;16.90;99.90;;;;;;5051786;28;20154;-77
2021/10/20 05:09:41;;;;;;;8.68;3.63;;;17.00;99.90;;;;;;5052293;28;20175;-79
2021/10/20 05:12:06;;;;;;;3.58;3.28;;;17.00;99.90;;;;;;5052368;28;20324;-78
2021/10/20 05:14:32;;;;;;;8.20;3.35;;;17.00;99.90;;;;;;5052356;28;20737;-78
2021/10/20 05:16:58;;;;;;;3.78;3.10;;;16.90;99.90;;;;;;5052695;28;20171;-78
2021/10/20 05:19:23;;;;;;;7.07;3.45;;;17.00;99.90;;;;;;5052106;28;20615;-79
2021/10/20 05:21:49;;;;;;;3.60;2.80;;;17.00;99.90;;;;;;5052208;28;20171;-78
2021/10/20 05:24:14;;;;;;;6.45;3.00;;;16.90;99.90;;;;;;5051965;28;20167;-78
2021/10/20 05:26:40;;;;;;;4.88;3.97;;;16.90;99.90;;;;;;5052300;28;20220;-78
2021/10/20 05:29:06;;;;;;;3.83;3.53;;;16.90;99.90;;;;;;5051101;28;20191;-78
2021/10/20 05:31:32;;;;;;;7.00;3.20;;;16.90;99.90;;;;;;5052250;28;20569;-78
2021/10/20 05:33:58;;;;;;;3.40;3.10;;;16.90;99.90;;;;;;5052843;28;20217;-79
2021/10/20 05:36:24;;;;;;;8.27;3.72;;;16.80;99.90;;;;;;5052288;28;20210;-79
2021/10/20 05:38:50;;;;;;;13.57;2.97;;;16.80;99.90;;;;;;5052183;28;20191;-79
2021/10/20 05:41:15;;;;;;;3.80;3.47;;;16.80;99.90;;;;;;5052220;28;20163;-80
2021/10/20 05:43:42;;;;;;;6.70;3.88;;;16.80;99.90;;;;;;5051487;28;20183;-77
2021/10/20 05:46:08;;;;;;;10.65;3.75;;;16.80;99.90;;;;;;5052363;28;20156;-80
2021/10/20 05:48:34;;;;;;;6.03;3.75;;;16.70;99.90;;;;;;5051899;28;20213;-80
2021/10/20 05:50:59;;;;;;;7.72;3.95;;;16.80;99.90;;;;;;5051720;28;20623;-79
2021/10/20 05:53:25;;;;;;;7.15;3.85;;;16.90;99.90;;;;;;5051750;28;20179;-78
2021/10/20 05:55:51;;;;;;;10.45;4.70;;;16.90;99.90;;;;;;5051717;28;20215;-79
2021/10/20 05:58:16;;;;;;;6.05;3.58;;;16.80;99.90;;;;;;5054513;28;20225;-78
2021/10/20 06:00:42;;;;;;;4.45;4.05;;;16.80;99.90;;;;;;5055721;28;20167;-79
2021/10/20 06:03:08;;;;;;;4.10;3.78;;;16.80;99.90;;;;;;5055632;28;20519;-79
2021/10/20 06:05:35;;;;;;;4.10;3.70;;;16.80;99.90;;;;;;5055673;28;20167;-79
2021/10/20 06:08:00;;;;;;;5.07;3.30;;;16.90;99.90;;;;;;5054474;28;20187;-79
2021/10/20 06:10:26;;;;;;;4.57;4.13;;;16.90;99.90;;;;;;5055554;28;20669;-78
2021/10/20 06:12:52;;;;;;;4.00;3.60;;;16.90;99.90;;;;;;5055157;28;20253;-79
2021/10/20 06:15:23;;;;;;;6.03;4.15;;;16.80;99.90;;;;;;5054278;28;20211;-77
2021/10/20 06:17:49;;;;;;;10.30;4.85;;;16.80;99.90;;;;;;5055144;28;20331;-76
2021/10/20 06:20:16;;;;;;;8.52;3.53;;;16.80;99.90;;;;;;5055067;28;20194;-82
2021/10/20 06:22:43;;;;;;;4.93;3.78;;;16.90;99.90;;;;;;5053491;28;20186;-78
2021/10/20 06:25:10;;;;;;;4.22;3.78;;;16.80;99.90;;;;;;5053461;28;20167;-78
2021/10/20 06:27:36;;;;;;;6.90;4.38;;;16.90;99.90;;;;;;5054787;28;20561;-78
2021/10/20 06:30:03;;;;;;;4.43;4.03;;;17.00;99.90;;;;;;5055044;28;20270;-77
2021/10/20 06:32:29;;;;;;;7.28;4.05;;;17.10;99.90;;;;;;5055042;28;20175;-79
2021/10/20 06:34:54;;;;;;;6.65;3.85;;;17.10;99.90;;;;;;5054747;28;20643;-78
2021/10/20 06:37:20;;;;;;;4.60;4.20;;;17.10;99.90;;;;;;5054483;28;20217;-78
2021/10/20 06:39:46;;;;;;;6.28;5.07;;;17.00;99.90;;;;;;5054449;28;20164;-81
2021/10/20 06:42:11;;;;;;;9.43;4.80;;;16.90;99.90;;;;;;5053907;28;20983;-76
2021/10/20 06:44:37;;;;;;;5.40;4.90;;;16.80;99.90;;;;;;5054585;28;20518;-77
2021/10/20 06:47:02;;;;;;;12.32;5.47;;;16.70;99.90;;;;;;5054841;28;20156;-77
2021/10/20 06:49:28;;;;;;;5.35;4.88;;;16.60;99.90;;;;;;5054533;28;20743;-79
2021/10/20 06:51:54;;;;;;;7.78;5.35;;;16.60;99.90;;;;;;5054871;28;20167;-77
2021/10/20 06:54:20;;;;;;;6.93;5.18;;;16.60;99.90;;;;;;5057243;28;20171;-77
2021/10/20 06:56:50;;;;;;;8.90;5.70;;;16.50;99.90;;;;;;5054803;28;20171;-77
2021/10/20 06:59:16;;;;;;;16.48;5.60;;;16.50;99.90;;;;;;5053984;28;20225;-78
2021/10/20 07:01:42;;;;;;;8.68;5.65;;;16.20;99.90;;;;;;5053137;28;20174;-79
2021/10/20 07:04:11;;;;;;;8.13;6.43;;;16.10;99.90;;;;;;5054546;28;20238;-80
2021/10/20 07:06:38;;;;;;;15.00;6.53;;;16.10;99.90;;;;;;5054193;28;20507;-80
2021/10/20 07:09:05;;;;;;;8.05;6.05;;;16.00;99.90;;;;;;5053763;28;20213;-79
2021/10/20 07:11:31;;;;;;;7.68;6.85;;;15.90;99.90;;;;;;5054348;28;20173;-81
2021/10/20 07:13:57;;;;;;;11.98;6.25;;;15.90;99.90;;;;;;5052373;28;20186;-79
2021/10/20 07:16:22;;;;;;;10.27;6.82;;;15.90;99.90;;;;;;5051915;28;20616;-78
2021/10/20 07:18:49;;;;;;;8.05;7.05;;;16.10;99.90;;;;;;5052241;28;20206;-78
2021/10/20 07:21:15;;;;;;;7.75;6.93;;;16.10;99.90;;;;;;5053493;28;20265;-77
2021/10/20 07:23:40;;;;;;;7.25;6.35;;;16.10;99.90;;;;;;5053647;28;20246;-82
2021/10/20 07:26:06;;;;;;;6.28;5.68;;;16.20;99.90;;;;;;5052319;28;20168;-79
2021/10/20 07:28:32;;;;;;;7.28;6.18;;;16.10;99.90;;;;;;5054045;28;20191;-85
2021/10/20 07:30:58;;;;;;;12.10;6.53;;;16.20;99.90;;;;;;5052266;28;20214;-78
2021/10/20 07:33:24;;;;;;;9.30;5.97;;;16.20;99.90;;;;;;5053653;28;20521;-78
2021/10/20 07:35:49;;;;;;;7.05;5.82;;;16.20;99.90;;;;;;5053867;28;20348;-78
2021/10/20 07:38:16;;;;;;;8.68;6.03;;;16.10;99.90;;;;;;5053720;28;20187;-77
2021/10/20 07:40:41;;;;;;;6.80;6.18;;;16.20;99.90;;;;;;5053978;28;20179;-78
2021/10/20 07:43:07;;;;;;;8.23;6.15;;;16.20;99.90;;;;;;5053503;28;20167;-77
2021/10/20 07:45:33;;;;;;;6.30;5.80;;;16.40;99.90;;;;;;5051841;28;20189;-78
2021/10/20 07:47:59;;;;;;;16.13;6.30;;;16.30;99.90;;;;;;5053405;28;20663;-78
2021/10/20 07:50:25;;;;;;;6.93;5.53;;;16.30;99.90;;;;;;5053691;28;20208;-80
2021/10/20 07:52:51;;;;;;;16.00;5.57;;;16.40;99.90;;;;;;5052764;28;20225;-83
2021/10/20 07:55:20;;;;;;;6.57;5.60;;;16.50;99.90;;;;;;5053509;28;20598;-82
2021/10/20 07:57:46;;;;;;;7.85;5.60;;;16.50;99.90;;;;;;5054018;28;20194;-84
2021/10/20 08:00:12;;;;;;;6.85;6.28;;;16.50;99.90;;;;;;5052828;28;20171;-82
2021/10/20 08:02:38;;;;;;;6.10;5.47;;;16.60;99.90;;;;;;5052222;28;20205;-86
2021/10/20 08:05:04;;;;;;;13.73;5.32;;;16.70;99.90;;;;;;5053542;28;20163;-83
2021/10/20 08:07:29;;;;;;;8.57;5.85;;;16.70;99.90;;;;;;5052010;28;20183;-85
2021/10/20 08:09:55;;;;;;;8.68;6.03;;;16.60;99.90;;;;;;5051222;28;20174;-79
2021/10/20 08:12:21;;;;;;;6.18;5.65;;;16.60;99.90;;;;;;5053096;28;20571;-80
2021/10/20 08:14:52;;;;;;;11.68;5.63;;;16.70;99.90;;;;;;5052387;28;20203;-78
2021/10/20 08:17:18;;;;;;;7.70;5.18;;;16.70;99.90;;;;;;5051173;28;20258;-79
2021/10/20 08:19:44;;;;;;;5.50;5.00;;;16.70;99.90;;;;;;5052321;28;20615;-79
2021/10/20 08:22:10;;;;;;;5.65;5.15;;;16.80;99.90;;;;;;5052570;28;20171;-81
2021/10/20 08:24:35;;;;;;;5.47;4.95;;;16.90;99.90;;;;;;5051307;28;20261;-80
2021/10/20 08:27:01;;;;;;;6.10;5.28;;;17.00;99.90;;;;;;5052883;28;20666;-79
2021/10/20 08:29:27;;;;;;;5.90;4.22;;;16.90;99.90;;;;;;5052706;28;20175;-79
2021/10/20 08:31:52;;;;;;;6.63;4.40;;;17.10;99.90;;;;;;5052737;28;20250;-80
2021/10/20 08:34:18;;;;;;;5.88;4.95;;;17.40;99.90;;;;;;5052278;28;20203;-78
2021/10/20 08:36:43;;;;;;;7.32;5.07;;;17.40;99.90;;;;;;5052590;28;20175;-79
2021/10/20 08:39:09;;;;;;;4.57;4.18;;;17.40;99.90;;;;;;5052330;28;20223;-78
2021/10/20 08:41:35;;;;;;;4.95;4.45;;;17.50;99.90;;;;;;5052130;28;20189;-79
2021/10/20 08:44:02;;;;;;;5.47;4.60;;;17.50;99.90;;;;;;5042903;28;20705;-79
2021/10/20 08:46:28;;;;;;;5.40;4.90;;;17.60;99.90;;;;;;5050451;28;20639;-79
2021/10/20 08:48:54;;;;;;;4.88;4.38;;;17.70;99.90;;;;;;5051242;28;20273;-77
2021/10/20 08:51:22;;;;;;;5.82;4.82;;;17.70;99.90;;;;;;5052197;28;20177;-77
2021/10/20 08:53:48;;;;;;;7.85;4.78;;;17.50;99.90;;;;;;5050308;28;20251;-80
2021/10/20 08:56:17;;;;;;;12.35;4.80;;;17.40;99.90;;;;;;5051600;28;20234;-76
2021/10/20 08:58:43;;;;;;;5.45;4.95;;;17.30;99.90;;;;;;5051487;28;20194;-76
2021/10/20 09:01:08;;;;;;;4.22;3.90;;;17.40;99.90;;;;;;5053085;28;20163;-77
2021/10/20 09:03:34;;;;;;;4.90;4.45;;;17.60;99.90;;;;;;5051686;28;20179;-82
2021/10/20 09:06:00;;;;;;;11.23;4.63;;;17.60;99.90;;;;;;5049718;28;20163;-78
2021/10/20 09:08:25;;;;;;;6.00;5.10;;;17.70;99.90;;;;;;5046912;28;20314;-77
2021/10/20 09:10:51;;;;;;;6.32;5.28;;;17.70;99.90;;;;;;5046009;28;20236;-76
2021/10/20 09:13:17;;;;;;;5.55;5.07;;;17.70;99.90;;;;;;5036660;28;20167;-77
2021/10/20 09:15:43;;;;;;;5.40;4.65;;;17.60;99.90;;;;;;5037685;28;20225;-77
2021/10/20 09:18:11;;;;;;;5.97;5.38;;;17.70;99.90;;;;;;5043510;28;20199;-77
2021/10/20 09:20:45;;;;;;;7.43;5.53;;;17.90;99.90;;;;;;5050610;28;20171;-82
2021/10/20 09:23:19;;;;;;;9.82;5.05;;;18.10;99.90;;;;;;5044117;28;20173;-79
2021/10/20 09:25:57;;;;;;;6.53;5.20;;;18.30;99.90;;;;;;5047813;28;20280;-78
2021/10/20 09:28:32;;;;;;;6.22;5.63;;;18.50;99.90;;;;;;5052089;28;20280;-80
2021/10/20 09:31:03;;;;;;;7.82;4.63;;;18.50;99.90;;;;;;5032880;28;20198;-80
2021/10/20 09:33:37;;;;;;;5.90;4.90;;;18.60;99.90;;;;;;5035481;28;20167;-79
2021/10/20 09:36:08;;;;;;;5.93;5.35;;;18.60;99.90;;;;;;5035267;28;20226;-78
2021/10/20 09:38:35;;;;;;;11.77;5.13;;;18.50;99.90;;;;;;5036142;28;20210;-78
2021/10/20 09:41:06;;;;;;;15.23;6.00;;;18.60;99.90;;;;;;5054592;28;20163;-77
2021/10/20 09:43:33;;;;;;;6.40;4.78;;;18.60;99.90;;;;;;5054755;28;20178;-79
2021/10/20 09:46:02;;;;;;;4.88;4.47;;;18.60;99.90;;;;;;5054100;28;20175;-79
2021/10/20 09:48:28;;;;;;;5.05;4.65;;;18.40;99.90;;;;;;5054193;28;20212;-79
2021/10/20 09:50:55;;;;;;;6.00;4.70;;;18.50;99.90;;;;;;5054487;28;20167;-80
2021/10/20 09:53:21;;;;;;;4.80;4.13;;;18.50;99.90;;;;;;5055096;28;20167;-78
2021/10/20 09:55:47;;;;;;;5.32;4.93;;;18.40;99.90;;;;;;5054081;28;20264;-78
2021/10/20 09:58:15;;;;;;;4.82;4.32;;;18.50;99.90;;;;;;5054592;28;20528;-82
2021/10/20 10:00:42;;;;;;;6.35;4.63;;;18.30;99.90;;;;;;5054764;28;20175;-81
2021/10/20 10:03:08;;;;;;;7.22;3.97;;;18.20;99.90;;;;;;5054824;28;20159;-78
2021/10/20 10:05:34;;;;;;;4.90;4.50;;;18.20;99.90;;;;;;5054596;28;20254;-78
2021/10/20 10:08:00;;;;;;;5.18;4.78;;;18.10;99.90;;;;;;5053481;28;20282;-79
2021/10/20 10:10:26;;;;;;;4.60;4.20;;;18.10;99.90;;;;;;5055012;28;20515;-77
2021/10/20 10:12:57;;;;;;;6.13;5.53;;;18.10;99.90;;;;;;5054294;28;20176;-80
2021/10/20 10:15:24;;;;;;;7.18;4.50;;;18.10;99.90;;;;;;5055209;28;20199;-79
2021/10/20 10:17:55;;;;;;;11.63;6.18;;;18.10;99.90;;;;;;5071158;28;20194;-79
2021/10/20 10:20:26;;;;;;;5.28;4.57;;;18.00;99.90;;;;;;5073977;28;20202;-77
2021/10/20 10:22:59;;;;;;;6.03;4.78;;;17.90;99.90;;;;;;5076868;28;20156;-77
2021/10/20 10:25:40;;;;;;;7.18;4.88;;;18.00;99.90;;;;;;5076108;28;20175;-77
2021/10/20 10:28:18;;;;;;;7.57;5.95;;;18.10;99.90;;;;;;5071428;28;20550;-78
2021/10/20 10:30:56;;;;;;;8.82;5.03;;;18.20;99.90;;;;;;5055683;28;20178;-78
2021/10/20 10:33:23;;;;;;;5.53;4.53;;;18.20;99.90;;;;;;5054576;28;20171;-78
2021/10/20 10:36:15;;;;;;;8.02;5.15;;;18.20;99.90;;;;;;5057583;28;20216;-77
2021/10/20 10:38:59;;;;;;;5.38;4.90;;;18.20;99.90;;;;;;5054250;28;20183;-81
2021/10/20 10:41:41;;;;;;;6.05;4.47;;;18.10;99.90;;;;;;5052939;28;20190;-79
2021/10/20 10:44:07;;;;;;;5.28;4.53;;;18.20;99.90;;;;;;5054031;28;20163;-79
2021/10/20 10:46:45;;;;;;;7.55;5.13;;;18.20;99.90;;;;;;5054855;28;20247;-79
2021/10/20 10:49:26;;;;;;;7.60;4.90;;;18.10;99.90;;;;;;5054887;28;20194;-79
2021/10/20 10:52:20;;;;;;;10.40;5.45;;;18.20;99.90;;;;;;5054680;28;20170;-80
2021/10/20 10:55:13;;;;;;;5.90;4.80;;;18.20;99.90;;;;;;5054169;28;20203;-80
2021/10/20 10:57:48;;;;;;;5.30;4.60;;;18.10;99.90;;;;;;5054225;28;20283;-79
2021/10/20 11:00:20;;;;;;;7.45;5.68;;;18.10;99.90;;;;;;5054739;28;20292;-79
2021/10/20 11:02:51;;;;;;;8.80;4.80;;;18.20;99.90;;;;;;5053202;28;20183;-79
2021/10/20 11:05:24;;;;;;;6.28;4.97;;;18.30;99.90;;;;;;5053976;28;20171;-79
2021/10/20 11:07:52;;;;;;;11.93;4.65;;;18.10;99.90;;;;;;5054566;28;20700;-78
2021/10/20 11:10:19;;;;;;;5.95;4.75;;;18.10;99.90;;;;;;5054176;28;20621;-78
2021/10/20 11:12:49;;;;;;;5.40;4.75;;;18.10;99.90;;;;;;5054629;28;20167;-78
2021/10/20 11:15:18;;;;;;;6.30;4.75;;;18.20;99.90;;;;;;5054178;28;20246;-79
2021/10/20 11:17:44;;;;;;;4.63;4.22;;;18.20;99.90;;;;;;5054215;28;20179;-79
2021/10/20 11:20:19;;;;;;;7.35;5.03;;;18.20;99.90;;;;;;5054581;28;20662;-79
2021/10/20 11:22:52;;;;;;;8.68;4.63;;;18.30;99.90;;;;;;5054481;28;20175;-80
2021/10/20 11:25:19;;;;;;;12.27;5.65;;;18.20;99.90;;;;;;5053815;28;20175;-80
2021/10/20 11:27:51;;;;;;;4.68;4.28;;;18.20;99.90;;;;;;5054391;28;20197;-79
2021/10/20 11:30:18;;;;;;;9.93;4.65;;;18.20;99.90;;;;;;5054894;28;20178;-78
2021/10/20 11:32:46;;;;;;;17.02;4.88;;;18.10;99.90;;;;;;5054365;28;20167;-78
2021/10/20 11:35:18;;;;;;;6.55;4.47;;;18.10;99.90;;;;;;5055242;28;20202;-79
2021/10/20 11:38:02;;;;;;;5.47;4.97;;;18.20;99.90;;;;;;5053877;28;20198;-80
2021/10/20 11:40:52;;;;;;;14.13;4.75;;;18.10;99.90;;;;;;5053780;28;20167;-78
2021/10/20 11:43:23;;;;;;;5.30;4.82;;;18.10;99.90;;;;;;5053446;28;20649;-79
2021/10/20 11:45:49;;;;;;;7.72;5.50;;;18.20;99.90;;;;;;5053795;28;20186;-79
2021/10/20 11:48:18;;;;;;;8.68;5.38;;;18.30;99.90;;;;;;5052189;28;20197;-79
2021/10/20 11:50:50;;;;;;;6.80;3.97;;;18.40;99.90;;;;;;5053699;28;20547;-79
2021/10/20 11:53:16;;;;;;;5.63;4.47;;;18.60;99.90;;;;;;5052300;28;20172;-79
2021/10/20 11:55:44;;;;;;;10.20;4.90;;;18.70;99.90;;;;;;5052513;28;20210;-79
2021/10/20 11:58:25;;;;;;;6.10;4.43;;;18.60;99.90;;;;;;5053301;28;20274;-79
2021/10/20 12:00:53;;;;;;;13.15;5.57;;;18.60;99.90;;;;;;5051729;28;20163;-78
2021/10/20 12:03:19;;;;;;;5.57;5.07;;;18.50;99.90;;;;;;5053330;28;20167;-78
2021/10/20 12:05:46;;;;;;;5.70;5.10;;;18.40;99.90;;;;;;5053400;28;20175;-80
2021/10/20 12:08:12;;;;;;;12.15;4.57;;;18.40;99.90;;;;;;5053000;28;20201;-79
2021/10/20 12:10:38;;;;;;;7.50;4.85;;;18.30;99.90;;;;;;5052765;28;20635;-80
2021/10/20 12:13:07;;;;;;;5.20;4.78;;;18.40;99.90;;;;;;5052981;28;20163;-80
2021/10/20 12:15:40;;;;;;;5.70;4.65;;;18.50;99.90;;;;;;5053228;28;20207;-79
2021/10/20 12:18:08;;;;;;;4.80;4.43;;;18.70;99.90;;;;;;5052716;28;20594;-79
2021/10/20 12:20:33;;;;;;;5.63;5.13;;;18.90;99.90;;;;;;5053142;28;20263;-79
2021/10/20 12:22:59;;;;;;;5.10;4.60;;;18.80;99.90;;;;;;5052478;28;20246;-80
2021/10/20 12:25:25;;;;;;;7.85;4.90;;;18.80;99.90;;;;;;5052703;28;20178;-79
2021/10/20 12:27:51;;;;;;;7.18;4.60;;;18.90;99.90;;;;;;5052661;28;20190;-79
2021/10/20 12:30:17;;;;;;;14.52;4.80;;;18.90;99.90;;;;;;5052981;28;20631;-81
2021/10/20 12:32:43;;;;;;;10.27;4.03;;;18.90;99.90;;;;;;5035030;28;20250;-79
2021/10/20 12:35:14;;;;;;;5.72;4.43;;;19.10;99.90;;;;;;5052455;28;20655;-79
2021/10/20 12:37:42;;;;;;;10.20;4.82;;;19.30;99.90;;;;;;5052496;28;20191;-80
2021/10/20 12:40:15;;;;;;;11.77;4.78;;;19.40;99.90;;;;;;5052629;28;20163;-79
2021/10/20 12:42:46;;;;;;;10.57;5.22;;;19.50;99.90;;;;;;5053063;28;20579;-79
2021/10/20 12:45:13;;;;;;;10.98;4.88;;;19.60;99.90;;;;;;5052144;28;20201;-79